Terminal Aerodrome Forecast
Issued by NWS Charleston, SC

Home | Current Version | Previous Version | Text Only | Print | Product List | Glossary On
Versions: 1 2 3 4 5 6 7 8 9 10 11 12 13 14 15 16
191
FTUS42 KCHS 140528
TAFCHS
TAF
KCHS 140528Z 1406/1506 04007KT P6SM SKC
     FM141400 05010KT P6SM FEW040 BKN250
     FM150000 06009KT P6SM SCT025 BKN035=

USA.gov is the U.S. government's official web portal to all federal, state and local government web resources and services.